Henderson, NV (89044)

9:56 AM PDT on July 25, 2016 (GMT -0700)
APRSWXNET | | Change Station

Elev 2401 ft 35.99 °N, 115.12 °W | Updated 55 minutes ago

Clear
Clear
96 °F
Feels Like 92 °F
N
2
Wind Variable Wind from SSW
Gusts 0.0 mph

Today
High -- | Low -- °F
--% Chance of Precip.
Yesterday
High -- | Low -- °F
Precip. -- in
Pressure 29.87 in
Visibility 10.0 miles
Clouds Clear
Heat Index 92 °F
Dew Point 41 °F
Humidity 15%
Rainfall in
Snow Depth Not available.
5:42 AM 7:50 PM
Waning Gibbous, 64% visible
METAR KHND 251556Z 19008KT 10SM CLR 36/04 A2998 RMK AO2 SLP115 T03610044 PNO $
Pressure 29.87 in
Visibility 10.0 miles
Clouds Clear
Heat Index 92 °F
Dew Point 41 °F
Humidity 15%
Rainfall in
Snow Depth Not available.
5:42 AM 7:50 PM
Waning Gibbous, 64% visible
METAR KHND 251556Z 19008KT 10SM CLR 36/04 A2998 RMK AO2 SLP115 T03610044 PNO $

10-Day Weather Forecast

Almanac

Astronomy

Jul. 25, 2016 Rise Set
Actual Time
Civil Twilight
Nautical Twilight
Astronomical Twilight
Moon
Length of Visible Light
Length of Day
Tomorrow will be .
, % of the Moon is Illuminated

Today's Extremes

State Highs State Lows

Community

WunderPhotos

Upload Photos

1,927,349 photos uploaded!

WunderBlog® & News

Nearby

Air Quality

  Air Quality AQ Index Pollutant
Not available.

Snow Depth

Station Depth Elevation

Earthquake Activity

City Distance Mag. Time & Date
Minimum magnitude displayed is 2.5.

Coastal Water Temperatures

Place Temperature

Stations

Nearby Weather Stations

Station Location Temp. Windchill Dew Point Humidity Wind Precip. Elev Updated Type
                   

Watches & Warnings

There are currently no watches in effect.